Time;durP1;ratioP1;P1;durP2;ratioP2;P2;SDS_P1;SDS_P2;PMS_P1;PMS_P2;Temp;Humidity;BMP_temperature;BMP_pressure;BME280_temperature;BME280_humidity;BME280_pressure;Samples;Min_cycle;Max_cycle;Signal;HPM_P1;HPM_P2
2021/05/14 00:02:24;;;;;;;6.87;4.63;;;;;;;;;;12884527;23;20215;-84
2021/05/14 00:07:27;;;;;;;6.73;4.87;;;;;;;;;;12887185;23;20469;-83
2021/05/14 00:12:30;;;;;;;8.97;4.60;;;;;;;;;;12905733;22;20175;-84
2021/05/14 00:17:34;;;;;;;7.07;4.40;;;;;;;;;;12905584;23;20250;-82
2021/05/14 00:22:37;;;;;;;8.57;5.20;;;;;;;;;;12906673;23;20234;-83
2021/05/14 00:27:40;;;;;;;10.03;4.90;;;;;;;;;;12907251;23;20218;-82
2021/05/14 00:32:44;;;;;;;8.00;5.40;;;;;;;;;;12905057;23;20181;-83
2021/05/14 00:37:46;;;;;;;9.07;5.10;;;;;;;;;;12907879;23;20175;-82
2021/05/14 00:42:49;;;;;;;7.03;5.20;;;;;;;;;;12905234;23;20213;-83
2021/05/14 00:47:52;;;;;;;7.00;5.40;;;;;;;;;;12905126;23;20181;-82
2021/05/14 00:52:55;;;;;;;8.53;5.43;;;;;;;;;;12904595;23;20191;-83
2021/05/14 00:57:59;;;;;;;9.43;5.60;;;;;;;;;;12884907;23;20181;-83
2021/05/14 01:03:01;;;;;;;10.87;5.60;;;;;;;;;;12881905;22;20241;-83
2021/05/14 01:08:04;;;;;;;10.17;6.30;;;;;;;;;;12885607;22;20267;-83
2021/05/14 01:13:07;;;;;;;10.73;6.17;;;;;;;;;;12885962;23;20262;-83
2021/05/14 01:18:09;;;;;;;10.67;6.30;;;;;;;;;;12903064;22;20214;-83
2021/05/14 01:23:14;;;;;;;9.07;6.40;;;;;;;;;;12907493;23;20199;-83
2021/05/14 01:28:16;;;;;;;11.20;7.00;;;;;;;;;;12904310;23;20627;-83
2021/05/14 01:33:18;;;;;;;9.93;6.17;;;;;;;;;;12882978;23;20175;-83
2021/05/14 01:38:22;;;;;;;9.73;6.40;;;;;;;;;;12905790;23;20472;-82
2021/05/14 01:43:24;;;;;;;9.00;6.40;;;;;;;;;;12905393;23;20211;-83
2021/05/14 01:48:26;;;;;;;8.93;5.93;;;;;;;;;;12903293;23;20717;-83
2021/05/14 01:53:29;;;;;;;9.13;6.43;;;;;;;;;;12905984;23;20182;-83
2021/05/14 01:58:32;;;;;;;10.03;5.97;;;;;;;;;;12904348;23;20174;-82
2021/05/14 02:03:34;;;;;;;9.30;6.10;;;;;;;;;;12903365;22;20206;-84
2021/05/14 02:08:38;;;;;;;9.50;6.13;;;;;;;;;;12904030;22;20493;-83
2021/05/14 02:13:41;;;;;;;7.13;5.60;;;;;;;;;;12905265;23;20178;-83
2021/05/14 02:18:44;;;;;;;7.83;6.07;;;;;;;;;;12881729;23;20244;-82
2021/05/14 02:23:48;;;;;;;8.87;6.13;;;;;;;;;;12884190;22;20653;-83
2021/05/14 02:28:50;;;;;;;9.13;6.10;;;;;;;;;;12903033;23;20696;-84
2021/05/14 02:33:52;;;;;;;9.47;6.57;;;;;;;;;;12882437;23;20175;-83
2021/05/14 02:38:56;;;;;;;8.47;6.20;;;;;;;;;;12882264;23;20181;-84
2021/05/14 02:43:59;;;;;;;11.47;6.97;;;;;;;;;;12884572;23;20203;-83
2021/05/14 02:49:02;;;;;;;9.57;7.00;;;;;;;;;;12900536;23;20529;-84
2021/05/14 02:54:05;;;;;;;10.67;7.03;;;;;;;;;;12904921;23;20263;-83
2021/05/14 02:59:08;;;;;;;10.93;6.77;;;;;;;;;;12903758;23;20177;-83
2021/05/14 03:04:10;;;;;;;13.57;7.60;;;;;;;;;;12903756;23;20216;-84
2021/05/14 03:09:14;;;;;;;11.37;7.47;;;;;;;;;;12904124;23;20206;-84
2021/05/14 03:14:16;;;;;;;12.97;7.83;;;;;;;;;;12903985;23;20181;-84
2021/05/14 03:19:18;;;;;;;13.60;7.83;;;;;;;;;;12902348;23;20185;-84
2021/05/14 03:24:21;;;;;;;13.63;7.90;;;;;;;;;;12905865;23;20203;-84
2021/05/14 03:29:28;;;;;;;15.60;8.57;;;;;;;;;;12900271;22;20175;-83
2021/05/14 03:34:31;;;;;;;13.17;7.87;;;;;;;;;;12884874;23;20798;-83
2021/05/14 03:39:39;;;;;;;13.50;8.47;;;;;;;;;;12881516;23;20179;-84
2021/05/14 03:44:42;;;;;;;18.07;9.07;;;;;;;;;;12905006;23;20197;-83
2021/05/14 03:49:45;;;;;;;16.20;9.37;;;;;;;;;;12901851;23;20179;-84
2021/05/14 03:54:48;;;;;;;15.10;9.20;;;;;;;;;;12887280;23;20210;-84
2021/05/14 03:59:50;;;;;;;14.43;8.70;;;;;;;;;;12888437;23;20167;-84
2021/05/14 04:04:53;;;;;;;16.40;9.23;;;;;;;;;;12884334;23;20220;-83
2021/05/14 04:10:04;;;;;;;17.77;8.87;;;;;;;;;;12908366;22;20185;-82
2021/05/14 04:15:08;;;;;;;14.87;8.97;;;;;;;;;;12883167;23;20258;-83
2021/05/14 04:20:10;;;;;;;15.17;8.70;;;;;;;;;;12905655;22;20226;-82
2021/05/14 04:25:13;;;;;;;15.90;9.40;;;;;;;;;;12905279;23;20203;-83
2021/05/14 04:30:19;;;;;;;14.63;8.73;;;;;;;;;;12906045;23;20177;-83
2021/05/14 04:35:22;;;;;;;14.70;8.70;;;;;;;;;;12903375;22;20323;-83
2021/05/14 04:40:26;;;;;;;14.37;9.30;;;;;;;;;;12907412;23;20177;-83
2021/05/14 04:45:29;;;;;;;14.77;9.27;;;;;;;;;;12906218;23;20294;-83
2021/05/14 04:50:32;;;;;;;13.23;8.00;;;;;;;;;;12884922;23;20178;-84
2021/05/14 04:55:35;;;;;;;16.23;9.03;;;;;;;;;;12904432;23;20370;-84
2021/05/14 05:00:38;;;;;;;15.30;8.93;;;;;;;;;;12905637;23;20198;-83
2021/05/14 05:05:40;;;;;;;13.87;8.33;;;;;;;;;;12900251;23;20618;-84
2021/05/14 05:10:43;;;;;;;13.27;8.60;;;;;;;;;;12903863;23;20206;-84
2021/05/14 05:15:46;;;;;;;15.63;9.10;;;;;;;;;;12881955;23;20793;-83
2021/05/14 05:20:49;;;;;;;17.47;8.83;;;;;;;;;;12885845;22;20503;-84
2021/05/14 05:25:52;;;;;;;13.87;8.67;;;;;;;;;;12902710;23;20207;-84
2021/05/14 05:30:55;;;;;;;12.03;8.27;;;;;;;;;;12881315;23;20821;-84
2021/05/14 05:35:59;;;;;;;12.90;8.50;;;;;;;;;;12902820;23;20182;-84
2021/05/14 05:41:02;;;;;;;12.90;8.40;;;;;;;;;;12882824;22;20181;-84
2021/05/14 05:46:05;;;;;;;12.10;7.40;;;;;;;;;;12901215;23;20203;-83
2021/05/14 05:51:09;;;;;;;11.27;7.13;;;;;;;;;;12902889;23;20657;-83
2021/05/14 05:56:12;;;;;;;11.10;7.53;;;;;;;;;;12902002;22;20170;-83
2021/05/14 06:01:14;;;;;;;9.27;6.70;;;;;;;;;;12902390;23;20219;-83
2021/05/14 06:06:17;;;;;;;9.23;6.73;;;;;;;;;;12881894;23;20211;-83
2021/05/14 06:11:20;;;;;;;11.43;7.30;;;;;;;;;;12906272;23;20576;-83
2021/05/14 06:16:22;;;;;;;9.20;6.90;;;;;;;;;;12880620;23;20179;-83
2021/05/14 06:21:25;;;;;;;9.50;6.83;;;;;;;;;;12905676;23;20175;-84
2021/05/14 06:26:29;;;;;;;10.40;6.50;;;;;;;;;;12902017;23;20722;-82
2021/05/14 06:31:31;;;;;;;8.93;7.33;;;;;;;;;;12901972;23;20175;-83
2021/05/14 06:36:34;;;;;;;12.97;7.87;;;;;;;;;;12883105;23;20210;-82
2021/05/14 06:41:37;;;;;;;12.83;7.40;;;;;;;;;;12904928;23;20177;-82
2021/05/14 06:46:40;;;;;;;11.80;7.33;;;;;;;;;;12902038;23;20181;-81
2021/05/14 06:51:43;;;;;;;10.00;7.30;;;;;;;;;;12904190;22;20698;-84
2021/05/14 06:56:46;;;;;;;8.83;6.60;;;;;;;;;;12883763;22;20181;-82
2021/05/14 07:01:48;;;;;;;8.27;6.33;;;;;;;;;;12881588;23;20191;-83
2021/05/14 07:06:52;;;;;;;8.27;6.50;;;;;;;;;;12905802;23;20194;-82
2021/05/14 07:11:55;;;;;;;11.23;7.03;;;;;;;;;;12880999;23;20201;-83
2021/05/14 07:17:00;;;;;;;8.20;6.50;;;;;;;;;;12904720;22;20211;-83
2021/05/14 07:22:04;;;;;;;8.40;6.27;;;;;;;;;;12902676;23;20282;-83
2021/05/14 07:27:07;;;;;;;10.63;6.67;;;;;;;;;;12906772;23;20179;-82
2021/05/14 07:32:09;;;;;;;8.97;5.90;;;;;;;;;;12904019;23;20176;-82
2021/05/14 07:37:12;;;;;;;9.67;5.80;;;;;;;;;;12889196;23;20193;-82
2021/05/14 07:42:16;;;;;;;7.63;6.00;;;;;;;;;;12886446;23;20668;-82
2021/05/14 07:47:18;;;;;;;8.87;6.00;;;;;;;;;;12884564;23;20291;-82
2021/05/14 07:52:21;;;;;;;7.80;5.50;;;;;;;;;;12906185;23;20186;-81
2021/05/14 07:57:24;;;;;;;8.87;5.60;;;;;;;;;;12905180;22;20534;-84
2021/05/14 08:02:26;;;;;;;8.80;6.17;;;;;;;;;;12902582;23;20214;-83
2021/05/14 08:07:29;;;;;;;9.57;6.27;;;;;;;;;;12888636;23;20181;-82
2021/05/14 08:12:34;;;;;;;7.20;5.23;;;;;;;;;;12907524;23;20179;-81
2021/05/14 08:17:53;;;;;;;7.77;5.53;;;;;;;;;;12905767;23;20225;-84
2021/05/14 08:22:56;;;;;;;8.23;5.40;;;;;;;;;;12906851;23;20737;-82
2021/05/14 08:27:59;;;;;;;11.97;5.73;;;;;;;;;;12908478;22;20425;-81
2021/05/14 08:33:02;;;;;;;10.10;6.20;;;;;;;;;;12903816;23;20175;-83
2021/05/14 08:38:04;;;;;;;11.77;6.70;;;;;;;;;;12907674;23;20178;-82
2021/05/14 08:43:07;;;;;;;10.97;6.70;;;;;;;;;;12904392;23;20203;-81
2021/05/14 08:48:12;;;;;;;9.90;6.27;;;;;;;;;;12900353;23;20478;-81
2021/05/14 08:53:15;;;;;;;10.10;6.97;;;;;;;;;;12883883;22;20257;-84
2021/05/14 08:58:18;;;;;;;10.07;7.13;;;;;;;;;;12904522;23;20202;-81
2021/05/14 09:03:21;;;;;;;12.90;7.43;;;;;;;;;;12903114;23;20207;-84
2021/05/14 09:08:26;;;;;;;10.63;7.40;;;;;;;;;;12883876;23;20171;-82
2021/05/14 09:13:36;;;;;;;10.87;7.33;;;;;;;;;;12904569;23;20768;-84
2021/05/14 09:18:40;;;;;;;11.83;8.80;;;;;;;;;;12879194;23;20191;-83
2021/05/14 09:23:43;;;;;;;13.00;9.10;;;;;;;;;;12883180;23;20650;-81
2021/05/14 09:28:47;;;;;;;13.10;8.97;;;;;;;;;;12881383;23;20186;-84
2021/05/14 09:33:51;;;;;;;15.57;9.43;;;;;;;;;;12903115;23;20255;-84
2021/05/14 09:38:58;;;;;;;15.43;10.43;;;;;;;;;;12903297;23;20559;-83
2021/05/14 09:44:09;;;;;;;14.60;9.77;;;;;;;;;;12884788;23;20207;-83
2021/05/14 09:49:13;;;;;;;13.37;9.33;;;;;;;;;;12901012;23;20178;-83
2021/05/14 09:54:23;;;;;;;14.97;9.87;;;;;;;;;;12905099;23;20183;-83
2021/05/14 09:59:26;;;;;;;15.53;9.73;;;;;;;;;;12903466;23;20422;-83
2021/05/14 10:04:29;;;;;;;14.07;9.87;;;;;;;;;;12881627;22;20555;-83
2021/05/14 10:09:31;;;;;;;13.30;8.90;;;;;;;;;;12902057;23;20581;-81
2021/05/14 10:14:36;;;;;;;15.63;9.90;;;;;;;;;;12902705;23;20294;-82
2021/05/14 10:19:40;;;;;;;17.00;11.53;;;;;;;;;;12901935;23;20194;-84
2021/05/14 10:24:43;;;;;;;13.53;8.93;;;;;;;;;;12902377;23;20206;-83
2021/05/14 10:29:47;;;;;;;12.57;8.77;;;;;;;;;;12901463;23;20267;-83
2021/05/14 10:35:01;;;;;;;14.77;9.10;;;;;;;;;;12877587;23;20568;-83
2021/05/14 10:40:04;;;;;;;13.60;8.63;;;;;;;;;;12903048;23;20174;-82
2021/05/14 10:45:28;;;;;;;12.73;8.13;;;;;;;;;;12879815;23;20603;-83
2021/05/14 10:50:35;;;;;;;13.50;8.13;;;;;;;;;;12898555;23;20554;-83
2021/05/14 10:55:38;;;;;;;11.63;7.53;;;;;;;;;;12900016;23;20640;-83
2021/05/14 11:00:41;;;;;;;11.47;7.93;;;;;;;;;;12901230;23;20179;-83
2021/05/14 11:05:45;;;;;;;10.27;7.20;;;;;;;;;;12901716;23;20313;-82
2021/05/14 11:10:58;;;;;;;14.77;7.57;;;;;;;;;;12905541;23;20681;-83
2021/05/14 11:16:16;;;;;;;13.93;8.00;;;;;;;;;;12882028;23;20242;-83
2021/05/14 11:21:19;;;;;;;12.07;7.53;;;;;;;;;;12904873;22;20197;-82
2021/05/14 11:26:21;;;;;;;11.00;7.10;;;;;;;;;;12904585;23;20273;-82
2021/05/14 11:31:25;;;;;;;11.73;6.83;;;;;;;;;;12902622;22;20190;-80
2021/05/14 11:36:29;;;;;;;15.23;7.33;;;;;;;;;;12906163;23;20485;-83
2021/05/14 11:41:32;;;;;;;10.70;6.73;;;;;;;;;;12903597;23;20171;-83
2021/05/14 11:46:35;;;;;;;11.23;7.20;;;;;;;;;;12881982;23;20202;-80
2021/05/14 11:51:39;;;;;;;12.27;7.10;;;;;;;;;;12900475;22;20187;-81
2021/05/14 11:56:42;;;;;;;12.03;6.93;;;;;;;;;;12883840;23;20516;-81
2021/05/14 12:01:44;;;;;;;16.17;7.17;;;;;;;;;;12902642;23;20229;-82
2021/05/14 12:06:48;;;;;;;14.97;8.07;;;;;;;;;;12884648;23;20207;-82
2021/05/14 12:11:50;;;;;;;11.80;7.03;;;;;;;;;;12903808;23;20171;-82
2021/05/14 12:16:53;;;;;;;11.67;6.40;;;;;;;;;;12902350;23;20692;-83
2021/05/14 12:22:08;;;;;;;13.10;7.33;;;;;;;;;;12904105;23;20182;-82
2021/05/14 12:27:10;;;;;;;11.30;5.53;;;;;;;;;;12903280;23;20580;-82
2021/05/14 12:32:17;;;;;;;10.53;5.83;;;;;;;;;;12900584;23;20190;-83
2021/05/14 12:37:20;;;;;;;11.10;5.63;;;;;;;;;;12904597;23;20525;-82
2021/05/14 12:42:27;;;;;;;12.03;5.30;;;;;;;;;;12904627;23;20182;-82
2021/05/14 12:47:29;;;;;;;8.40;5.50;;;;;;;;;;12881091;23;20207;-82
2021/05/14 12:52:34;;;;;;;11.10;5.40;;;;;;;;;;12881918;23;20210;-82
2021/05/14 12:57:38;;;;;;;8.73;4.87;;;;;;;;;;12903297;23;20179;-83
2021/05/14 13:02:40;;;;;;;9.67;4.77;;;;;;;;;;12900316;23;20222;-83
2021/05/14 13:07:58;;;;;;;6.47;4.30;;;;;;;;;;12883056;23;20668;-82
2021/05/14 13:13:01;;;;;;;8.80;4.53;;;;;;;;;;12902029;23;20702;-82
2021/05/14 13:18:04;;;;;;;7.53;4.50;;;;;;;;;;12900867;23;20178;-82
2021/05/14 13:23:06;;;;;;;8.80;4.77;;;;;;;;;;12902468;23;20178;-83
2021/05/14 13:28:09;;;;;;;9.53;5.17;;;;;;;;;;12882362;23;20175;-83
2021/05/14 13:33:11;;;;;;;8.60;5.40;;;;;;;;;;12878088;23;20367;-83
2021/05/14 13:38:14;;;;;;;9.57;5.80;;;;;;;;;;12902886;23;20562;-82
2021/05/14 13:43:17;;;;;;;10.93;6.10;;;;;;;;;;12902287;23;20620;-83
2021/05/14 13:48:20;;;;;;;11.13;5.90;;;;;;;;;;12900191;23;20181;-84
2021/05/14 13:53:24;;;;;;;10.67;5.57;;;;;;;;;;12881944;23;20573;-83
2021/05/14 13:58:29;;;;;;;12.53;5.73;;;;;;;;;;12902318;22;20186;-83
2021/05/14 14:03:31;;;;;;;9.43;5.40;;;;;;;;;;12878681;23;20210;-83
2021/05/14 14:08:33;;;;;;;12.70;5.77;;;;;;;;;;12902879;23;20175;-83
2021/05/14 14:13:37;;;;;;;12.93;4.80;;;;;;;;;;12902453;23;20163;-84
2021/05/14 14:18:40;;;;;;;11.87;5.27;;;;;;;;;;12899846;23;20173;-82
2021/05/14 14:23:42;;;;;;;9.77;5.17;;;;;;;;;;12881202;22;20220;-84
2021/05/14 14:28:45;;;;;;;8.97;5.00;;;;;;;;;;12901733;22;20187;-82
2021/05/14 14:33:48;;;;;;;10.63;5.30;;;;;;;;;;12898165;23;20523;-81
2021/05/14 14:38:50;;;;;;;9.47;5.60;;;;;;;;;;12903870;23;20254;-81
2021/05/14 14:43:54;;;;;;;10.73;5.77;;;;;;;;;;12881475;23;20225;-84
2021/05/14 14:48:56;;;;;;;10.03;5.70;;;;;;;;;;12898954;23;20182;-83
2021/05/14 14:53:59;;;;;;;8.57;5.27;;;;;;;;;;12901605;23;20182;-83
2021/05/14 14:59:02;;;;;;;9.33;4.73;;;;;;;;;;12901442;23;20473;-83
2021/05/14 15:04:05;;;;;;;11.23;5.57;;;;;;;;;;12898958;23;20692;-83
2021/05/14 15:09:07;;;;;;;11.33;5.77;;;;;;;;;;12880602;23;20654;-83
2021/05/14 15:14:11;;;;;;;11.17;6.00;;;;;;;;;;12900756;23;20253;-83
2021/05/14 15:19:14;;;;;;;11.20;5.80;;;;;;;;;;12878470;23;20201;-83
2021/05/14 15:24:16;;;;;;;9.80;5.13;;;;;;;;;;12901662;23;20230;-83
2021/05/14 15:29:19;;;;;;;11.50;6.07;;;;;;;;;;12879455;23;20179;-83
2021/05/14 15:34:22;;;;;;;11.33;6.07;;;;;;;;;;12898779;22;20203;-83
2021/05/14 15:39:24;;;;;;;12.40;5.67;;;;;;;;;;12881573;22;20190;-83
2021/05/14 15:44:28;;;;;;;11.73;6.40;;;;;;;;;;12899807;23;20660;-85
2021/05/14 15:49:30;;;;;;;10.50;6.17;;;;;;;;;;12901039;22;20730;-83
2021/05/14 15:54:33;;;;;;;12.87;6.30;;;;;;;;;;12903576;23;20670;-82
2021/05/14 15:59:36;;;;;;;11.10;6.67;;;;;;;;;;12903550;23;20637;-85
2021/05/14 16:04:39;;;;;;;11.67;7.20;;;;;;;;;;12901404;23;20206;-82
2021/05/14 16:09:46;;;;;;;11.33;6.43;;;;;;;;;;12905892;23;20688;-83
2021/05/14 16:14:50;;;;;;;12.47;6.60;;;;;;;;;;12903545;23;20274;-84
2021/05/14 16:19:53;;;;;;;11.80;6.80;;;;;;;;;;12901561;23;20266;-83
2021/05/14 16:24:59;;;;;;;12.80;6.90;;;;;;;;;;12885504;23;20223;-80
2021/05/14 16:30:03;;;;;;;11.77;6.70;;;;;;;;;;12903344;23;20610;-84
2021/05/14 16:35:06;;;;;;;11.43;6.20;;;;;;;;;;12879956;23;20179;-84
2021/05/14 16:40:09;;;;;;;11.03;6.43;;;;;;;;;;12883670;23;20508;-84
2021/05/14 16:45:14;;;;;;;12.43;7.30;;;;;;;;;;12904160;23;20708;-83
2021/05/14 16:50:18;;;;;;;16.37;7.30;;;;;;;;;;12901190;23;20253;-84
2021/05/14 16:55:21;;;;;;;13.47;6.97;;;;;;;;;;12903588;23;20572;-84
2021/05/14 17:00:25;;;;;;;11.40;7.07;;;;;;;;;;12903200;23;20846;-84
2021/05/14 17:05:27;;;;;;;12.33;7.60;;;;;;;;;;12901924;23;20221;-85
2021/05/14 17:10:30;;;;;;;13.60;8.00;;;;;;;;;;12904483;22;20185;-84
2021/05/14 17:15:33;;;;;;;17.50;8.07;;;;;;;;;;12882636;23;20281;-84
2021/05/14 17:20:37;;;;;;;15.07;7.60;;;;;;;;;;12902203;22;20175;-84
2021/05/14 17:25:39;;;;;;;13.70;7.97;;;;;;;;;;12903551;23;20607;-84
2021/05/14 17:30:43;;;;;;;14.20;7.37;;;;;;;;;;12901519;23;20561;-85
2021/05/14 17:35:45;;;;;;;12.30;7.57;;;;;;;;;;12902649;23;20258;-85
2021/05/14 17:40:48;;;;;;;15.70;7.60;;;;;;;;;;12902840;23;20490;-85
2021/05/14 17:45:51;;;;;;;12.57;7.03;;;;;;;;;;12901222;22;20480;-85
2021/05/14 17:50:54;;;;;;;13.27;7.33;;;;;;;;;;12904272;23;20178;-84
2021/05/14 17:55:59;;;;;;;15.63;6.77;;;;;;;;;;12902073;23;20232;-85
2021/05/14 18:01:03;;;;;;;12.70;6.53;;;;;;;;;;12900888;23;20268;-85
2021/05/14 18:06:05;;;;;;;13.80;6.87;;;;;;;;;;12902614;23;20213;-85
2021/05/14 18:11:09;;;;;;;12.03;6.90;;;;;;;;;;12881489;23;20700;-84
2021/05/14 18:16:12;;;;;;;11.43;6.23;;;;;;;;;;12900180;23;20175;-85
2021/05/14 18:21:16;;;;;;;13.70;6.00;;;;;;;;;;12881651;23;20182;-85
2021/05/14 18:26:19;;;;;;;12.23;5.80;;;;;;;;;;12880771;23;20775;-83
2021/05/14 18:31:22;;;;;;;11.63;6.07;;;;;;;;;;12899984;23;20175;-83
2021/05/14 18:36:25;;;;;;;15.57;6.10;;;;;;;;;;12899123;23;20198;-83
2021/05/14 18:41:27;;;;;;;13.20;5.23;;;;;;;;;;12901328;23;20202;-84
2021/05/14 18:46:30;;;;;;;13.30;5.23;;;;;;;;;;12878551;23;20199;-84
2021/05/14 18:51:33;;;;;;;11.63;5.60;;;;;;;;;;12901356;23;20187;-84
2021/05/14 18:56:35;;;;;;;12.33;5.23;;;;;;;;;;12900757;22;20210;-83
2021/05/14 19:01:38;;;;;;;11.40;5.60;;;;;;;;;;12897392;23;20198;-83
2021/05/14 19:06:41;;;;;;;11.57;5.20;;;;;;;;;;12902416;23;20206;-83
2021/05/14 19:11:43;;;;;;;12.33;5.10;;;;;;;;;;12902305;23;20262;-85
2021/05/14 19:16:47;;;;;;;9.90;4.93;;;;;;;;;;12881172;22;20183;-83
2021/05/14 19:21:50;;;;;;;10.20;5.37;;;;;;;;;;12905113;23;20657;-83
2021/05/14 19:27:29;;;;;;;10.53;4.83;;;;;;;;;;12907313;23;20203;-83
2021/05/14 19:48:43;;;;;;;10.23;4.90;;;;;;;;;;12904607;23;20261;-82
2021/05/14 19:53:46;;;;;;;9.03;4.90;;;;;;;;;;12906739;23;20804;-82
2021/05/14 19:58:49;;;;;;;11.60;5.30;;;;;;;;;;12886743;22;20182;-82
2021/05/14 20:03:52;;;;;;;10.83;5.53;;;;;;;;;;12892306;23;20569;-82
2021/05/14 20:08:54;;;;;;;13.10;5.10;;;;;;;;;;12907060;23;20241;-82
2021/05/14 20:14:00;;;;;;;10.80;5.00;;;;;;;;;;12906055;23;20191;-82
2021/05/14 20:19:04;;;;;;;11.80;5.20;;;;;;;;;;12894983;23;20175;-82
2021/05/14 20:24:07;;;;;;;15.30;5.30;;;;;;;;;;12906867;23;20237;-82
2021/05/14 20:29:10;;;;;;;9.27;5.77;;;;;;;;;;12906414;23;20228;-81
2021/05/14 20:34:14;;;;;;;12.13;5.80;;;;;;;;;;12882406;23;20175;-83
2021/05/14 20:39:24;;;;;;;9.03;5.37;;;;;;;;;;12903930;22;20172;-83
2021/05/14 20:44:26;;;;;;;9.97;5.07;;;;;;;;;;12882364;23;20190;-83
2021/05/14 20:49:31;;;;;;;9.37;5.40;;;;;;;;;;12880398;23;20172;-83
2021/05/14 20:54:34;;;;;;;9.13;4.90;;;;;;;;;;12882523;23;20178;-82
2021/05/14 20:59:36;;;;;;;12.57;5.37;;;;;;;;;;12883830;23;20177;-82
2021/05/14 21:04:40;;;;;;;10.80;4.97;;;;;;;;;;12902466;23;20195;-83
2021/05/14 21:09:42;;;;;;;9.60;5.17;;;;;;;;;;12883813;23;20617;-82
2021/05/14 21:14:44;;;;;;;9.47;4.90;;;;;;;;;;12882180;22;20378;-82
2021/05/14 21:19:48;;;;;;;10.23;5.37;;;;;;;;;;12901045;22;21015;-82
2021/05/14 21:24:51;;;;;;;10.87;5.23;;;;;;;;;;12903707;22;20229;-82
2021/05/14 21:29:53;;;;;;;11.27;5.50;;;;;;;;;;12903023;22;20195;-82
2021/05/14 21:34:57;;;;;;;10.27;5.57;;;;;;;;;;12879895;22;20261;-82
2021/05/14 21:39:58;;;;;;;9.47;5.30;;;;;;;;;;12883067;23;20199;-82
2021/05/14 21:44:59;;;;;;;11.13;5.40;;;;;;;;;;12903748;23;20195;-81
2021/05/14 21:50:01;;;;;;;10.87;5.97;;;;;;;;;;12880607;23;20181;-81
2021/05/14 21:55:03;;;;;;;11.80;5.67;;;;;;;;;;12902677;23;20189;-84
2021/05/14 22:00:05;;;;;;;11.60;6.00;;;;;;;;;;12882996;23;20186;-81
2021/05/14 22:05:08;;;;;;;10.90;5.80;;;;;;;;;;12883581;23;20221;-82
2021/05/14 22:10:10;;;;;;;9.53;5.30;;;;;;;;;;12882343;23;20175;-82
2021/05/14 22:15:11;;;;;;;11.43;6.17;;;;;;;;;;12902170;23;20241;-84
2021/05/14 22:20:13;;;;;;;13.37;6.20;;;;;;;;;;12878611;23;20181;-82
2021/05/14 22:25:14;;;;;;;8.80;5.77;;;;;;;;;;12882570;23;20290;-84
2021/05/14 22:30:16;;;;;;;12.80;6.20;;;;;;;;;;12881881;22;20579;-84
2021/05/14 22:35:19;;;;;;;10.20;6.03;;;;;;;;;;12878350;23;20175;-84
2021/05/14 22:40:20;;;;;;;10.93;5.90;;;;;;;;;;12902689;23;20246;-82
2021/05/14 22:45:22;;;;;;;9.63;6.00;;;;;;;;;;12881708;23;20265;-84
2021/05/14 22:50:24;;;;;;;10.90;5.70;;;;;;;;;;12898851;23;20182;-85
2021/05/14 22:55:25;;;;;;;12.70;6.70;;;;;;;;;;12901097;23;20191;-84
2021/05/14 23:00:26;;;;;;;9.13;6.17;;;;;;;;;;12879933;23;20230;-84
2021/05/14 23:05:28;;;;;;;11.37;6.27;;;;;;;;;;12899114;23;20305;-84
2021/05/14 23:10:29;;;;;;;13.80;6.37;;;;;;;;;;12881694;23;20258;-82
2021/05/14 23:15:30;;;;;;;9.77;6.20;;;;;;;;;;12880888;23;20654;-84
2021/05/14 23:20:33;;;;;;;8.37;6.07;;;;;;;;;;12878782;23;20202;-84
2021/05/14 23:25:38;;;;;;;13.60;6.77;;;;;;;;;;12882034;23;20218;-82
2021/05/14 23:30:40;;;;;;;10.00;6.70;;;;;;;;;;12881055;23;20179;-84
2021/05/14 23:35:42;;;;;;;11.23;6.63;;;;;;;;;;12900788;23;20190;-82
2021/05/14 23:40:43;;;;;;;10.73;6.37;;;;;;;;;;12895155;23;20206;-84
2021/05/14 23:45:44;;;;;;;13.00;6.43;;;;;;;;;;12879912;22;20534;-84
2021/05/14 23:50:46;;;;;;;12.07;6.80;;;;;;;;;;12887076;22;20155;-78
2021/05/14 23:55:47;;;;;;;13.10;7.57;;;;;;;;;;12839512;23;20271;-77
